sensor_id;sensor_type;location;lat;lon;timestamp;P1;durP1;ratioP1;P2;durP2;ratioP2
77287;SDS011;66345;42.694;23.346;2024-02-26T00:00:33;39.30;;;20.30;;
77287;SDS011;66345;42.694;23.346;2024-02-26T00:03:00;43.95;;;21.75;;
77287;SDS011;66345;42.694;23.346;2024-02-26T00:05:25;40.95;;;20.88;;
77287;SDS011;66345;42.694;23.346;2024-02-26T00:07:51;36.03;;;19.43;;
77287;SDS011;66345;42.694;23.346;2024-02-26T00:10:17;37.43;;;18.73;;
77287;SDS011;66345;42.694;23.346;2024-02-26T00:12:42;34.00;;;19.73;;
77287;SDS011;66345;42.694;23.346;2024-02-26T00:15:08;37.30;;;19.23;;
77287;SDS011;66345;42.694;23.346;2024-02-26T00:17:34;37.30;;;19.90;;
77287;SDS011;66345;42.694;23.346;2024-02-26T00:20:00;42.47;;;20.30;;
77287;SDS011;66345;42.694;23.346;2024-02-26T00:22:29;36.97;;;18.55;;
77287;SDS011;66345;42.694;23.346;2024-02-26T00:24:55;36.22;;;19.13;;
77287;SDS011;66345;42.694;23.346;2024-02-26T00:27:21;34.70;;;18.60;;
77287;SDS011;66345;42.694;23.346;2024-02-26T00:29:46;41.30;;;19.13;;
77287;SDS011;66345;42.694;23.346;2024-02-26T00:32:12;41.73;;;20.37;;
77287;SDS011;66345;42.694;23.346;2024-02-26T00:34:37;36.30;;;20.35;;
77287;SDS011;66345;42.694;23.346;2024-02-26T00:37:03;35.83;;;17.63;;
77287;SDS011;66345;42.694;23.346;2024-02-26T00:39:28;37.15;;;19.83;;
77287;SDS011;66345;42.694;23.346;2024-02-26T00:41:54;38.63;;;19.30;;
77287;SDS011;66345;42.694;23.346;2024-02-26T00:44:19;39.37;;;19.33;;
77287;SDS011;66345;42.694;23.346;2024-02-26T00:46:45;42.30;;;20.45;;
77287;SDS011;66345;42.694;23.346;2024-02-26T00:49:10;36.88;;;19.77;;
77287;SDS011;66345;42.694;23.346;2024-02-26T00:51:36;40.87;;;21.57;;
77287;SDS011;66345;42.694;23.346;2024-02-26T00:54:02;46.97;;;27.90;;
77287;SDS011;66345;42.694;23.346;2024-02-26T00:56:27;48.50;;;28.00;;
77287;SDS011;66345;42.694;23.346;2024-02-26T00:58:53;52.40;;;28.93;;
77287;SDS011;66345;42.694;23.346;2024-02-26T01:01:18;49.00;;;26.37;;
77287;SDS011;66345;42.694;23.346;2024-02-26T01:03:44;41.45;;;22.70;;
77287;SDS011;66345;42.694;23.346;2024-02-26T01:06:09;41.17;;;22.27;;
77287;SDS011;66345;42.694;23.346;2024-02-26T01:08:35;49.20;;;27.47;;
77287;SDS011;66345;42.694;23.346;2024-02-26T01:11:00;46.83;;;24.88;;
77287;SDS011;66345;42.694;23.346;2024-02-26T01:13:26;43.10;;;23.17;;
77287;SDS011;66345;42.694;23.346;2024-02-26T01:15:52;36.22;;;21.27;;
77287;SDS011;66345;42.694;23.346;2024-02-26T01:18:17;38.83;;;21.50;;
77287;SDS011;66345;42.694;23.346;2024-02-26T01:20:43;38.93;;;20.63;;
77287;SDS011;66345;42.694;23.346;2024-02-26T01:23:08;34.65;;;19.35;;
77287;SDS011;66345;42.694;23.346;2024-02-26T01:25:34;33.88;;;18.88;;
77287;SDS011;66345;42.694;23.346;2024-02-26T01:27:59;39.30;;;19.43;;
77287;SDS011;66345;42.694;23.346;2024-02-26T01:30:25;39.57;;;19.70;;
77287;SDS011;66345;42.694;23.346;2024-02-26T01:32:50;36.47;;;19.02;;
77287;SDS011;66345;42.694;23.346;2024-02-26T01:35:16;37.67;;;18.77;;
77287;SDS011;66345;42.694;23.346;2024-02-26T01:37:41;36.37;;;18.67;;
77287;SDS011;66345;42.694;23.346;2024-02-26T01:40:07;41.47;;;19.38;;
77287;SDS011;66345;42.694;23.346;2024-02-26T01:42:34;40.15;;;19.25;;
77287;SDS011;66345;42.694;23.346;2024-02-26T01:45:00;38.70;;;19.17;;
77287;SDS011;66345;42.694;23.346;2024-02-26T01:47:26;37.10;;;18.42;;
77287;SDS011;66345;42.694;23.346;2024-02-26T01:49:53;41.95;;;19.20;;
77287;SDS011;66345;42.694;23.346;2024-02-26T01:52:19;36.07;;;19.63;;
77287;SDS011;66345;42.694;23.346;2024-02-26T01:54:46;36.58;;;17.98;;
77287;SDS011;66345;42.694;23.346;2024-02-26T01:57:12;35.17;;;18.85;;
77287;SDS011;66345;42.694;23.346;2024-02-26T01:59:39;33.53;;;17.30;;
77287;SDS011;66345;42.694;23.346;2024-02-26T02:02:05;29.08;;;16.27;;
77287;SDS011;66345;42.694;23.346;2024-02-26T02:04:33;34.08;;;16.45;;
77287;SDS011;66345;42.694;23.346;2024-02-26T02:06:59;29.80;;;16.00;;
77287;SDS011;66345;42.694;23.346;2024-02-26T02:09:26;29.27;;;15.50;;
77287;SDS011;66345;42.694;23.346;2024-02-26T02:11:52;29.80;;;16.80;;
77287;SDS011;66345;42.694;23.346;2024-02-26T02:14:18;35.60;;;17.35;;
77287;SDS011;66345;42.694;23.346;2024-02-26T02:16:44;30.30;;;16.57;;
77287;SDS011;66345;42.694;23.346;2024-02-26T02:19:09;30.27;;;16.73;;
77287;SDS011;66345;42.694;23.346;2024-02-26T02:21:35;33.72;;;17.20;;
77287;SDS011;66345;42.694;23.346;2024-02-26T02:24:00;33.67;;;17.30;;
77287;SDS011;66345;42.694;23.346;2024-02-26T02:26:26;36.33;;;16.83;;
77287;SDS011;66345;42.694;23.346;2024-02-26T02:28:51;32.97;;;16.38;;
77287;SDS011;66345;42.694;23.346;2024-02-26T02:31:18;29.97;;;16.47;;
77287;SDS011;66345;42.694;23.346;2024-02-26T02:33:44;37.78;;;17.95;;
77287;SDS011;66345;42.694;23.346;2024-02-26T02:36:10;34.20;;;17.13;;
77287;SDS011;66345;42.694;23.346;2024-02-26T02:38:36;30.75;;;16.98;;
77287;SDS011;66345;42.694;23.346;2024-02-26T02:41:02;35.33;;;16.93;;
77287;SDS011;66345;42.694;23.346;2024-02-26T02:43:28;31.20;;;17.50;;
77287;SDS011;66345;42.694;23.346;2024-02-26T02:45:54;29.80;;;16.50;;
77287;SDS011;66345;42.694;23.346;2024-02-26T02:48:19;32.40;;;17.40;;
77287;SDS011;66345;42.694;23.346;2024-02-26T02:50:45;32.05;;;16.80;;
77287;SDS011;66345;42.694;23.346;2024-02-26T02:53:10;30.90;;;17.50;;
77287;SDS011;66345;42.694;23.346;2024-02-26T02:55:36;34.57;;;17.23;;
77287;SDS011;66345;42.694;23.346;2024-02-26T02:58:01;35.20;;;17.20;;
77287;SDS011;66345;42.694;23.346;2024-02-26T03:00:27;33.80;;;18.00;;
77287;SDS011;66345;42.694;23.346;2024-02-26T03:02:52;34.60;;;18.30;;
77287;SDS011;66345;42.694;23.346;2024-02-26T03:05:18;33.00;;;17.63;;
77287;SDS011;66345;42.694;23.346;2024-02-26T03:07:43;41.60;;;18.92;;
77287;SDS011;66345;42.694;23.346;2024-02-26T03:10:09;34.97;;;18.60;;
77287;SDS011;66345;42.694;23.346;2024-02-26T03:12:34;33.23;;;18.60;;
77287;SDS011;66345;42.694;23.346;2024-02-26T03:15:00;30.48;;;16.65;;
77287;SDS011;66345;42.694;23.346;2024-02-26T03:17:29;31.90;;;17.20;;
77287;SDS011;66345;42.694;23.346;2024-02-26T03:19:55;33.13;;;17.30;;
77287;SDS011;66345;42.694;23.346;2024-02-26T03:22:21;33.78;;;18.33;;
77287;SDS011;66345;42.694;23.346;2024-02-26T03:24:47;34.23;;;17.47;;
77287;SDS011;66345;42.694;23.346;2024-02-26T03:27:13;32.55;;;17.83;;
77287;SDS011;66345;42.694;23.346;2024-02-26T03:29:39;30.80;;;17.70;;
77287;SDS011;66345;42.694;23.346;2024-02-26T03:32:05;34.33;;;17.80;;
77287;SDS011;66345;42.694;23.346;2024-02-26T03:34:31;42.40;;;19.23;;
77287;SDS011;66345;42.694;23.346;2024-02-26T03:36:59;32.92;;;17.92;;
77287;SDS011;66345;42.694;23.346;2024-02-26T03:39:25;31.20;;;16.80;;
77287;SDS011;66345;42.694;23.346;2024-02-26T03:41:51;35.72;;;18.10;;
77287;SDS011;66345;42.694;23.346;2024-02-26T03:44:17;35.00;;;18.42;;
77287;SDS011;66345;42.694;23.346;2024-02-26T03:46:42;34.03;;;17.30;;
77287;SDS011;66345;42.694;23.346;2024-02-26T03:49:08;31.33;;;16.73;;
77287;SDS011;66345;42.694;23.346;2024-02-26T03:51:34;33.55;;;16.90;;
77287;SDS011;66345;42.694;23.346;2024-02-26T03:54:00;31.77;;;17.80;;
77287;SDS011;66345;42.694;23.346;2024-02-26T03:56:26;33.00;;;17.15;;
77287;SDS011;66345;42.694;23.346;2024-02-26T03:58:52;33.47;;;16.83;;
77287;SDS011;66345;42.694;23.346;2024-02-26T04:01:18;33.03;;;16.02;;
77287;SDS011;66345;42.694;23.346;2024-02-26T04:03:43;30.40;;;16.53;;
77287;SDS011;66345;42.694;23.346;2024-02-26T04:06:09;30.70;;;15.80;;
77287;SDS011;66345;42.694;23.346;2024-02-26T04:08:44;30.27;;;16.92;;
77287;SDS011;66345;42.694;23.346;2024-02-26T04:11:10;32.20;;;16.07;;
77287;SDS011;66345;42.694;23.346;2024-02-26T04:13:35;35.53;;;17.77;;
77287;SDS011;66345;42.694;23.346;2024-02-26T04:16:05;33.77;;;17.27;;
77287;SDS011;66345;42.694;23.346;2024-02-26T04:18:34;31.40;;;17.02;;
77287;SDS011;66345;42.694;23.346;2024-02-26T04:20:59;33.40;;;17.93;;
77287;SDS011;66345;42.694;23.346;2024-02-26T04:23:25;36.03;;;17.98;;
77287;SDS011;66345;42.694;23.346;2024-02-26T04:25:50;33.17;;;18.10;;
77287;SDS011;66345;42.694;23.346;2024-02-26T04:28:18;38.72;;;18.60;;
77287;SDS011;66345;42.694;23.346;2024-02-26T04:30:45;41.23;;;21.20;;
77287;SDS011;66345;42.694;23.346;2024-02-26T04:33:12;39.25;;;20.88;;
77287;SDS011;66345;42.694;23.346;2024-02-26T04:35:37;40.03;;;21.38;;
77287;SDS011;66345;42.694;23.346;2024-02-26T04:38:03;40.10;;;21.30;;
77287;SDS011;66345;42.694;23.346;2024-02-26T04:40:28;43.73;;;22.40;;
77287;SDS011;66345;42.694;23.346;2024-02-26T04:42:54;45.37;;;21.70;;
77287;SDS011;66345;42.694;23.346;2024-02-26T04:45:19;47.10;;;21.23;;
77287;SDS011;66345;42.694;23.346;2024-02-26T04:47:44;41.90;;;21.67;;
77287;SDS011;66345;42.694;23.346;2024-02-26T04:50:12;40.80;;;21.58;;
77287;SDS011;66345;42.694;23.346;2024-02-26T04:52:37;40.57;;;20.83;;
77287;SDS011;66345;42.694;23.346;2024-02-26T04:55:03;40.10;;;21.20;;
77287;SDS011;66345;42.694;23.346;2024-02-26T04:57:29;43.13;;;23.52;;
77287;SDS011;66345;42.694;23.346;2024-02-26T04:59:54;43.00;;;22.00;;
77287;SDS011;66345;42.694;23.346;2024-02-26T05:02:20;42.63;;;22.58;;
77287;SDS011;66345;42.694;23.346;2024-02-26T05:04:46;39.13;;;21.53;;
77287;SDS011;66345;42.694;23.346;2024-02-26T05:07:11;40.83;;;21.35;;
77287;SDS011;66345;42.694;23.346;2024-02-26T05:09:37;37.10;;;19.93;;
77287;SDS011;66345;42.694;23.346;2024-02-26T05:12:03;46.17;;;21.75;;
77287;SDS011;66345;42.694;23.346;2024-02-26T05:14:29;34.90;;;19.10;;
77287;SDS011;66345;42.694;23.346;2024-02-26T05:16:54;35.25;;;18.67;;
77287;SDS011;66345;42.694;23.346;2024-02-26T05:19:20;36.07;;;17.37;;
77287;SDS011;66345;42.694;23.346;2024-02-26T05:21:45;35.40;;;17.70;;
77287;SDS011;66345;42.694;23.346;2024-02-26T05:24:12;33.88;;;17.08;;
77287;SDS011;66345;42.694;23.346;2024-02-26T05:26:38;38.23;;;20.10;;
77287;SDS011;66345;42.694;23.346;2024-02-26T05:29:03;37.70;;;17.80;;
77287;SDS011;66345;42.694;23.346;2024-02-26T05:31:29;32.37;;;17.90;;
77287;SDS011;66345;42.694;23.346;2024-02-26T05:33:54;35.43;;;18.07;;
77287;SDS011;66345;42.694;23.346;2024-02-26T05:36:20;33.63;;;18.20;;
77287;SDS011;66345;42.694;23.346;2024-02-26T05:38:47;37.37;;;19.90;;
77287;SDS011;66345;42.694;23.346;2024-02-26T05:41:13;43.47;;;18.70;;
77287;SDS011;66345;42.694;23.346;2024-02-26T05:43:40;37.90;;;17.88;;
77287;SDS011;66345;42.694;23.346;2024-02-26T05:46:06;39.93;;;18.13;;
77287;SDS011;66345;42.694;23.346;2024-02-26T05:48:31;32.88;;;16.65;;
77287;SDS011;66345;42.694;23.346;2024-02-26T05:50:57;31.83;;;16.42;;
77287;SDS011;66345;42.694;23.346;2024-02-26T05:53:22;34.57;;;17.43;;
77287;SDS011;66345;42.694;23.346;2024-02-26T05:55:48;35.80;;;17.83;;
77287;SDS011;66345;42.694;23.346;2024-02-26T05:58:13;32.97;;;16.95;;
77287;SDS011;66345;42.694;23.346;2024-02-26T06:00:39;34.27;;;17.23;;
77287;SDS011;66345;42.694;23.346;2024-02-26T06:03:04;31.85;;;16.95;;
77287;SDS011;66345;42.694;23.346;2024-02-26T06:05:30;32.30;;;18.00;;
77287;SDS011;66345;42.694;23.346;2024-02-26T06:07:56;37.53;;;18.08;;
77287;SDS011;66345;42.694;23.346;2024-02-26T06:10:21;33.87;;;18.00;;
77287;SDS011;66345;42.694;23.346;2024-02-26T06:12:47;34.67;;;17.67;;
77287;SDS011;66345;42.694;23.346;2024-02-26T06:15:13;34.03;;;17.45;;
77287;SDS011;66345;42.694;23.346;2024-02-26T06:17:38;38.07;;;18.03;;
77287;SDS011;66345;42.694;23.346;2024-02-26T06:20:04;38.57;;;17.40;;
77287;SDS011;66345;42.694;23.346;2024-02-26T06:22:31;34.97;;;17.35;;
77287;SDS011;66345;42.694;23.346;2024-02-26T06:24:57;32.88;;;17.08;;
77287;SDS011;66345;42.694;23.346;2024-02-26T06:27:23;36.93;;;17.67;;
77287;SDS011;66345;42.694;23.346;2024-02-26T06:29:49;44.83;;;20.60;;
77287;SDS011;66345;42.694;23.346;2024-02-26T06:32:14;43.30;;;19.63;;
77287;SDS011;66345;42.694;23.346;2024-02-26T06:34:40;40.72;;;19.83;;
77287;SDS011;66345;42.694;23.346;2024-02-26T06:37:07;44.83;;;20.03;;
77287;SDS011;66345;42.694;23.346;2024-02-26T06:39:33;42.40;;;19.42;;
77287;SDS011;66345;42.694;23.346;2024-02-26T06:41:59;39.55;;;19.33;;
77287;SDS011;66345;42.694;23.346;2024-02-26T06:44:26;42.28;;;18.50;;
77287;SDS011;66345;42.694;23.346;2024-02-26T06:47:00;30.90;;;16.37;;
77287;SDS011;66345;42.694;23.346;2024-02-26T06:49:26;42.10;;;19.25;;
77287;SDS011;66345;42.694;23.346;2024-02-26T06:51:53;48.47;;;19.75;;
77287;SDS011;66345;42.694;23.346;2024-02-26T06:54:18;35.42;;;18.08;;
77287;SDS011;66345;42.694;23.346;2024-02-26T06:56:44;36.80;;;17.03;;
77287;SDS011;66345;42.694;23.346;2024-02-26T06:59:10;40.10;;;18.83;;
77287;SDS011;66345;42.694;23.346;2024-02-26T07:01:35;29.75;;;15.32;;
77287;SDS011;66345;42.694;23.346;2024-02-26T07:04:03;30.65;;;15.95;;
77287;SDS011;66345;42.694;23.346;2024-02-26T07:06:29;39.63;;;17.83;;
77287;SDS011;66345;42.694;23.346;2024-02-26T07:08:54;44.93;;;18.07;;
77287;SDS011;66345;42.694;23.346;2024-02-26T07:11:20;33.63;;;16.35;;
77287;SDS011;66345;42.694;23.346;2024-02-26T07:13:46;31.07;;;15.90;;
77287;SDS011;66345;42.694;23.346;2024-02-26T07:16:12;29.30;;;15.70;;
77287;SDS011;66345;42.694;23.346;2024-02-26T07:18:38;30.48;;;16.40;;
77287;SDS011;66345;42.694;23.346;2024-02-26T07:21:04;33.08;;;17.25;;
77287;SDS011;66345;42.694;23.346;2024-02-26T07:23:31;36.15;;;17.08;;
77287;SDS011;66345;42.694;23.346;2024-02-26T07:25:57;31.27;;;17.45;;
77287;SDS011;66345;42.694;23.346;2024-02-26T07:28:23;39.07;;;17.83;;
77287;SDS011;66345;42.694;23.346;2024-02-26T07:30:49;33.78;;;17.88;;
77287;SDS011;66345;42.694;23.346;2024-02-26T07:33:14;34.03;;;17.57;;
77287;SDS011;66345;42.694;23.346;2024-02-26T07:35:40;40.22;;;19.15;;
77287;SDS011;66345;42.694;23.346;2024-02-26T07:38:05;37.33;;;18.13;;
77287;SDS011;66345;42.694;23.346;2024-02-26T07:40:31;33.67;;;17.43;;
77287;SDS011;66345;42.694;23.346;2024-02-26T07:42:57;32.15;;;17.38;;
77287;SDS011;66345;42.694;23.346;2024-02-26T07:45:22;35.75;;;17.42;;
77287;SDS011;66345;42.694;23.346;2024-02-26T07:47:48;33.20;;;18.37;;
77287;SDS011;66345;42.694;23.346;2024-02-26T07:50:14;36.47;;;20.33;;
77287;SDS011;66345;42.694;23.346;2024-02-26T07:52:39;40.20;;;19.50;;
77287;SDS011;66345;42.694;23.346;2024-02-26T07:55:05;40.33;;;20.20;;
77287;SDS011;66345;42.694;23.346;2024-02-26T07:57:34;34.20;;;18.42;;
77287;SDS011;66345;42.694;23.346;2024-02-26T08:00:00;36.13;;;19.33;;
77287;SDS011;66345;42.694;23.346;2024-02-26T08:02:27;31.97;;;19.17;;
77287;SDS011;66345;42.694;23.346;2024-02-26T08:04:53;40.38;;;20.42;;
77287;SDS011;66345;42.694;23.346;2024-02-26T08:07:18;33.92;;;19.52;;
77287;SDS011;66345;42.694;23.346;2024-02-26T08:09:45;37.33;;;18.50;;
77287;SDS011;66345;42.694;23.346;2024-02-26T08:12:11;39.42;;;20.08;;
77287;SDS011;66345;42.694;23.346;2024-02-26T08:14:37;39.53;;;18.90;;
77287;SDS011;66345;42.694;23.346;2024-02-26T08:17:02;34.33;;;18.83;;
77287;SDS011;66345;42.694;23.346;2024-02-26T08:19:28;37.93;;;18.10;;
77287;SDS011;66345;42.694;23.346;2024-02-26T08:21:53;29.80;;;16.63;;
77287;SDS011;66345;42.694;23.346;2024-02-26T08:24:19;31.47;;;16.60;;
77287;SDS011;66345;42.694;23.346;2024-02-26T08:26:45;27.13;;;15.50;;
77287;SDS011;66345;42.694;23.346;2024-02-26T08:29:11;33.93;;;16.93;;
77287;SDS011;66345;42.694;23.346;2024-02-26T08:31:36;27.27;;;14.40;;
77287;SDS011;66345;42.694;23.346;2024-02-26T08:34:03;29.60;;;15.33;;
77287;SDS011;66345;42.694;23.346;2024-02-26T08:36:30;28.45;;;15.52;;
77287;SDS011;66345;42.694;23.346;2024-02-26T08:38:58;30.25;;;16.08;;
77287;SDS011;66345;42.694;23.346;2024-02-26T08:41:23;26.17;;;15.53;;
77287;SDS011;66345;42.694;23.346;2024-02-26T08:43:49;30.95;;;16.27;;
77287;SDS011;66345;42.694;23.346;2024-02-26T08:46:14;27.67;;;15.60;;
77287;SDS011;66345;42.694;23.346;2024-02-26T08:48:40;26.63;;;15.67;;
77287;SDS011;66345;42.694;23.346;2024-02-26T08:51:06;30.50;;;15.20;;
77287;SDS011;66345;42.694;23.346;2024-02-26T08:53:32;32.58;;;17.00;;
77287;SDS011;66345;42.694;23.346;2024-02-26T08:55:58;31.45;;;16.85;;
77287;SDS011;66345;42.694;23.346;2024-02-26T08:58:23;29.17;;;15.73;;
77287;SDS011;66345;42.694;23.346;2024-02-26T09:00:49;26.95;;;13.18;;
77287;SDS011;66345;42.694;23.346;2024-02-26T09:03:14;24.63;;;12.67;;
77287;SDS011;66345;42.694;23.346;2024-02-26T09:05:40;19.33;;;11.73;;
77287;SDS011;66345;42.694;23.346;2024-02-26T09:08:07;21.13;;;11.93;;
77287;SDS011;66345;42.694;23.346;2024-02-26T09:10:33;22.77;;;10.93;;
77287;SDS011;66345;42.694;23.346;2024-02-26T09:12:59;18.53;;;10.77;;
77287;SDS011;66345;42.694;23.346;2024-02-26T09:15:24;19.77;;;10.37;;
77287;SDS011;66345;42.694;23.346;2024-02-26T09:17:50;20.77;;;11.27;;
77287;SDS011;66345;42.694;23.346;2024-02-26T09:20:17;18.63;;;10.37;;
77287;SDS011;66345;42.694;23.346;2024-02-26T09:22:45;17.60;;;10.90;;
77287;SDS011;66345;42.694;23.346;2024-02-26T09:25:12;20.55;;;8.98;;
77287;SDS011;66345;42.694;23.346;2024-02-26T09:27:38;16.15;;;9.25;;
77287;SDS011;66345;42.694;23.346;2024-02-26T09:30:03;14.43;;;8.20;;
77287;SDS011;66345;42.694;23.346;2024-02-26T09:32:30;17.30;;;9.13;;
77287;SDS011;66345;42.694;23.346;2024-02-26T09:34:56;12.15;;;6.45;;
77287;SDS011;66345;42.694;23.346;2024-02-26T09:37:21;8.47;;;5.37;;
77287;SDS011;66345;42.694;23.346;2024-02-26T09:39:47;8.50;;;4.60;;
77287;SDS011;66345;42.694;23.346;2024-02-26T09:42:12;8.68;;;4.20;;
77287;SDS011;66345;42.694;23.346;2024-02-26T09:44:39;11.90;;;5.00;;
77287;SDS011;66345;42.694;23.346;2024-02-26T09:47:07;9.77;;;4.85;;
77287;SDS011;66345;42.694;23.346;2024-02-26T09:49:36;8.40;;;4.40;;
77287;SDS011;66345;42.694;23.346;2024-02-26T09:52:03;12.23;;;4.43;;
77287;SDS011;66345;42.694;23.346;2024-02-26T09:54:30;9.15;;;4.32;;
77287;SDS011;66345;42.694;23.346;2024-02-26T09:57:00;7.80;;;4.10;;
77287;SDS011;66345;42.694;23.346;2024-02-26T09:59:36;7.28;;;4.20;;
77287;SDS011;66345;42.694;23.346;2024-02-26T10:02:06;10.95;;;5.25;;
77287;SDS011;66345;42.694;23.346;2024-02-26T10:04:36;6.95;;;3.85;;
77287;SDS011;66345;42.694;23.346;2024-02-26T10:07:03;8.88;;;4.30;;
77287;SDS011;66345;42.694;23.346;2024-02-26T10:09:30;7.38;;;4.53;;
77287;SDS011;66345;42.694;23.346;2024-02-26T10:11:57;11.75;;;4.82;;
77287;SDS011;66345;42.694;23.346;2024-02-26T10:14:22;8.35;;;4.38;;
77287;SDS011;66345;42.694;23.346;2024-02-26T10:16:49;8.60;;;3.78;;
77287;SDS011;66345;42.694;23.346;2024-02-26T10:19:28;8.48;;;4.20;;
77287;SDS011;66345;42.694;23.346;2024-02-26T10:21:57;8.35;;;4.18;;
77287;SDS011;66345;42.694;23.346;2024-02-26T10:24:27;8.35;;;3.85;;
77287;SDS011;66345;42.694;23.346;2024-02-26T10:26:54;6.90;;;4.17;;
77287;SDS011;66345;42.694;23.346;2024-02-26T10:29:20;7.32;;;4.07;;
77287;SDS011;66345;42.694;23.346;2024-02-26T10:31:47;9.73;;;4.38;;
77287;SDS011;66345;42.694;23.346;2024-02-26T10:34:13;7.55;;;4.10;;
77287;SDS011;66345;42.694;23.346;2024-02-26T10:36:40;8.60;;;4.40;;
77287;SDS011;66345;42.694;23.346;2024-02-26T10:39:09;7.40;;;4.50;;
77287;SDS011;66345;42.694;23.346;2024-02-26T10:41:36;8.05;;;4.30;;
77287;SDS011;66345;42.694;23.346;2024-02-26T10:44:02;8.35;;;4.55;;
77287;SDS011;66345;42.694;23.346;2024-02-26T10:46:28;9.75;;;4.20;;
77287;SDS011;66345;42.694;23.346;2024-02-26T10:48:54;8.55;;;4.90;;
77287;SDS011;66345;42.694;23.346;2024-02-26T10:51:22;8.63;;;4.30;;
77287;SDS011;66345;42.694;23.346;2024-02-26T10:53:54;8.30;;;4.30;;
77287;SDS011;66345;42.694;23.346;2024-02-26T10:56:26;8.60;;;3.92;;
77287;SDS011;66345;42.694;23.346;2024-02-26T10:58:53;7.50;;;4.25;;
77287;SDS011;66345;42.694;23.346;2024-02-26T11:01:20;10.35;;;3.70;;
77287;SDS011;66345;42.694;23.346;2024-02-26T11:03:50;7.82;;;3.72;;
77287;SDS011;66345;42.694;23.346;2024-02-26T11:06:17;9.87;;;4.30;;
77287;SDS011;66345;42.694;23.346;2024-02-26T11:08:49;7.75;;;3.88;;
77287;SDS011;66345;42.694;23.346;2024-02-26T11:11:17;6.95;;;4.18;;
77287;SDS011;66345;42.694;23.346;2024-02-26T11:13:46;9.70;;;4.22;;
77287;SDS011;66345;42.694;23.346;2024-02-26T11:16:18;6.38;;;3.53;;
77287;SDS011;66345;42.694;23.346;2024-02-26T11:18:46;6.53;;;3.67;;
77287;SDS011;66345;42.694;23.346;2024-02-26T11:21:15;9.27;;;3.78;;
77287;SDS011;66345;42.694;23.346;2024-02-26T11:23:42;7.45;;;3.58;;
77287;SDS011;66345;42.694;23.346;2024-02-26T11:26:08;7.13;;;3.90;;
77287;SDS011;66345;42.694;23.346;2024-02-26T11:28:36;8.93;;;3.90;;
77287;SDS011;66345;42.694;23.346;2024-02-26T11:31:03;7.00;;;3.13;;
77287;SDS011;66345;42.694;23.346;2024-02-26T11:33:30;8.43;;;3.90;;
77287;SDS011;66345;42.694;23.346;2024-02-26T11:35:56;8.00;;;3.55;;
77287;SDS011;66345;42.694;23.346;2024-02-26T11:38:24;6.45;;;3.50;;
77287;SDS011;66345;42.694;23.346;2024-02-26T11:40:52;6.78;;;3.83;;
77287;SDS011;66345;42.694;23.346;2024-02-26T11:43:22;8.13;;;4.00;;
77287;SDS011;66345;42.694;23.346;2024-02-26T11:45:49;8.60;;;4.00;;
77287;SDS011;66345;42.694;23.346;2024-02-26T11:48:20;7.95;;;3.97;;
77287;SDS011;66345;42.694;23.346;2024-02-26T11:50:54;9.15;;;4.00;;
77287;SDS011;66345;42.694;23.346;2024-02-26T11:55:47;9.10;;;3.97;;
77287;SDS011;66345;42.694;23.346;2024-02-26T11:58:13;9.48;;;3.85;;
77287;SDS011;66345;42.694;23.346;2024-02-26T12:00:42;7.90;;;3.90;;
77287;SDS011;66345;42.694;23.346;2024-02-26T12:03:08;7.67;;;3.60;;
77287;SDS011;66345;42.694;23.346;2024-02-26T12:05:35;7.40;;;3.80;;
77287;SDS011;66345;42.694;23.346;2024-02-26T12:08:03;9.30;;;3.80;;
77287;SDS011;66345;42.694;23.346;2024-02-26T12:10:32;7.28;;;3.30;;
77287;SDS011;66345;42.694;23.346;2024-02-26T12:13:15;7.70;;;4.07;;
77287;SDS011;66345;42.694;23.346;2024-02-26T12:15:42;8.80;;;3.77;;
77287;SDS011;66345;42.694;23.346;2024-02-26T12:18:10;6.07;;;3.33;;
77287;SDS011;66345;42.694;23.346;2024-02-26T12:20:41;6.85;;;3.63;;
77287;SDS011;66345;42.694;23.346;2024-02-26T12:23:07;6.15;;;3.25;;
77287;SDS011;66345;42.694;23.346;2024-02-26T12:25:32;9.13;;;3.53;;
77287;SDS011;66345;42.694;23.346;2024-02-26T12:27:58;6.72;;;3.05;;
77287;SDS011;66345;42.694;23.346;2024-02-26T12:30:25;9.02;;;3.30;;
77287;SDS011;66345;42.694;23.346;2024-02-26T12:32:51;8.80;;;3.70;;
77287;SDS011;66345;42.694;23.346;2024-02-26T12:35:22;6.80;;;3.15;;
77287;SDS011;66345;42.694;23.346;2024-02-26T12:37:47;8.30;;;3.78;;
77287;SDS011;66345;42.694;23.346;2024-02-26T12:40:13;7.03;;;3.30;;
77287;SDS011;66345;42.694;23.346;2024-02-26T12:42:39;5.90;;;3.17;;
77287;SDS011;66345;42.694;23.346;2024-02-26T12:45:06;6.33;;;3.33;;
77287;SDS011;66345;42.694;23.346;2024-02-26T12:47:43;6.50;;;3.08;;
77287;SDS011;66345;42.694;23.346;2024-02-26T12:50:16;6.20;;;3.00;;
77287;SDS011;66345;42.694;23.346;2024-02-26T12:52:46;5.47;;;2.60;;
77287;SDS011;66345;42.694;23.346;2024-02-26T12:55:14;6.85;;;3.22;;
77287;SDS011;66345;42.694;23.346;2024-02-26T12:57:41;8.15;;;2.83;;
77287;SDS011;66345;42.694;23.346;2024-02-26T13:00:11;6.65;;;2.70;;
77287;SDS011;66345;42.694;23.346;2024-02-26T13:02:39;5.50;;;2.47;;
77287;SDS011;66345;42.694;23.346;2024-02-26T13:05:10;7.13;;;3.00;;
77287;SDS011;66345;42.694;23.346;2024-02-26T13:07:44;5.40;;;2.75;;
77287;SDS011;66345;42.694;23.346;2024-02-26T13:10:12;6.93;;;3.20;;
77287;SDS011;66345;42.694;23.346;2024-02-26T13:12:42;5.78;;;2.50;;
77287;SDS011;66345;42.694;23.346;2024-02-26T13:15:09;6.82;;;2.80;;
77287;SDS011;66345;42.694;23.346;2024-02-26T13:17:40;7.90;;;3.08;;
77287;SDS011;66345;42.694;23.346;2024-02-26T13:20:07;8.33;;;3.20;;
77287;SDS011;66345;42.694;23.346;2024-02-26T13:22:38;7.00;;;2.95;;
77287;SDS011;66345;42.694;23.346;2024-02-26T13:25:04;6.82;;;2.80;;
77287;SDS011;66345;42.694;23.346;2024-02-26T13:27:32;5.93;;;3.07;;
77287;SDS011;66345;42.694;23.346;2024-02-26T13:30:11;6.55;;;3.20;;
77287;SDS011;66345;42.694;23.346;2024-02-26T13:32:38;7.45;;;3.10;;
77287;SDS011;66345;42.694;23.346;2024-02-26T13:35:05;6.32;;;3.10;;
77287;SDS011;66345;42.694;23.346;2024-02-26T13:37:31;6.47;;;2.97;;
77287;SDS011;66345;42.694;23.346;2024-02-26T13:39:57;8.60;;;2.87;;
77287;SDS011;66345;42.694;23.346;2024-02-26T13:42:22;7.17;;;3.10;;
77287;SDS011;66345;42.694;23.346;2024-02-26T13:44:48;5.97;;;2.70;;
77287;SDS011;66345;42.694;23.346;2024-02-26T13:47:14;7.30;;;3.13;;
77287;SDS011;66345;42.694;23.346;2024-02-26T13:49:39;5.70;;;2.57;;
77287;SDS011;66345;42.694;23.346;2024-02-26T13:52:05;7.97;;;3.00;;
77287;SDS011;66345;42.694;23.346;2024-02-26T13:54:33;6.35;;;3.00;;
77287;SDS011;66345;42.694;23.346;2024-02-26T13:57:00;10.30;;;3.25;;
77287;SDS011;66345;42.694;23.346;2024-02-26T13:59:26;8.20;;;2.75;;
77287;SDS011;66345;42.694;23.346;2024-02-26T14:01:51;8.00;;;3.10;;
77287;SDS011;66345;42.694;23.346;2024-02-26T14:04:20;6.20;;;2.80;;
77287;SDS011;66345;42.694;23.346;2024-02-26T14:06:45;6.40;;;2.90;;
77287;SDS011;66345;42.694;23.346;2024-02-26T14:09:11;8.95;;;2.72;;
77287;SDS011;66345;42.694;23.346;2024-02-26T14:11:36;5.33;;;2.57;;
77287;SDS011;66345;42.694;23.346;2024-02-26T14:14:02;5.78;;;3.00;;